Data for 11/30/2017

Time Sea-Level Adjusted Pressure Absolute Pressure Temperature Relative Humidity Dew Point   
(mb) (inHg) (mb) (inHg) (C) (F) (%) (C) (F)
00:05 1025 30.27 854 25.22 -6.1 21 67 -11.3 11.7
00:10 1025 30.27 854 25.22 -6.1 21 66 -11.5 11.3
00:15 1025 30.27 854 25.22 -5.9 21.4 66 -11.3 11.6
00:20 1025 30.27 854 25.22 -5.8 21.6 65 -11.3 11.6
00:25 1025 30.27 854 25.22 -5.7 21.8 65 -11.2 11.9
00:30 1025 30.27 854 25.22 -5.7 21.7 65 -11.3 11.6
00:35 1025 30.27 854 25.22 -5.9 21.4 66 -11.3 11.6
00:40 1025 30.27 854 25.22 -5.6 21.8 66 -11 12.2
00:45 1025 30.27 854 25.22 -5.4 22.2 65 -10.9 12.3
00:50 1025 30.27 854 25.22 -5.5 22.1 65 -11.1 12.1
00:55 1025 30.27 854 25.22 -5.6 21.9 64 -11.3 11.6
01:00 1025 30.27 854 25.22 -5.8 21.5 66 -11.2 11.9
01:05 1025 30.27 854 25.22 -5.9 21.3 67 -11.2 11.9
01:10 1025 30.27 854 25.22 -5.9 21.4 66 -11.3 11.7
01:15 1025 30.27 854 25.22 -5.9 21.4 66 -11.2 11.8
01:20 1025 30.27 854 25.22 -5.7 21.7 66 -11.1 12.1
01:25 1025 30.27 854 25.22 -5.9 21.4 65 -11.4 11.5
01:30 1025 30.27 854 25.22 -6.2 20.9 66 -11.5 11.3
01:35 1025 30.27 854 25.22 -6.3 20.7 67 -11.5 11.3
01:40 1025 30.27 854 25.22 -6.2 20.8 66 -11.5 11.3
01:45 1025 30.27 854 25.22 -6.1 21.1 66 -11.4 11.5
01:50 1025 30.27 854 25.22 -6 21.3 65 -11.5 11.3
01:55 1025 30.27 854 25.22 -5.9 21.4 66 -11.2 11.8
02:00 1025 30.27 854 25.22 -5.7 21.7 65 -11.3 11.7
02:05 1025 30.27 854 25.22 -5.9 21.5 66 -11.2 11.9
02:10 1025 30.27 854 25.22 -5.9 21.4 65 -11.5 11.4
02:15 1025 30.27 854 25.22 -6.1 20.9 66 -11.5 11.3
02:20 1025 30.27 854 25.22 -6.1 20.9 65 -11.6 11.1
02:25 1025 30.27 854 25.22 -6.2 20.8 66 -11.6 11.2
02:30 1024 30.24 854 25.22 -6.4 20.5 67 -11.6 11.1
02:35 1024 30.24 854 25.22 -6.5 20.3 68 -11.5 11.2
02:40 1024 30.24 854 25.22 -6.6 20.2 67 -11.6 11.1
02:45 1024 30.24 854 25.22 -6.5 20.4 67 -11.7 11
02:50 1024 30.24 854 25.22 -6.4 20.5 66 -11.7 11
02:55 1024 30.24 854 25.22 -6.2 20.8 65 -11.7 10.9
03:00 1024 30.24 854 25.22 -6.1 21 65 -11.6 11.1
03:05 1024 30.24 854 25.22 -6.1 21 65 -11.6 11.1
03:10 1024 30.24 853 25.19 -5.9 21.3 64 -11.6 11.1
03:15 1024 30.24 853 25.19 -5.9 21.4 65 -11.5 11.2
03:20 1024 30.24 853 25.19 -6.1 21 65 -11.6 11.1
03:25 1024 30.24 853 25.19 -6.2 20.9 64 -11.9 10.6
03:30 1024 30.24 853 25.19 -6 21.3 64 -11.7 10.9
03:35 1024 30.24 853 25.19 -6.1 20.9 64 -11.8 10.7
03:40 1024 30.24 853 25.19 -5.9 21.4 63 -11.9 10.6
03:45 1024 30.24 853 25.19 -6.1 21 65 -11.6 11.1
03:50 1024 30.24 853 25.19 -6.5 20.4 66 -11.8 10.7
03:55 1024 30.24 853 25.19 -6.4 20.4 66 -11.8 10.8
04:00 1024 30.24 853 25.19 -6.5 20.2 66 -11.8 10.7
04:05 1024 30.24 853 25.19 -6.7 19.9 67 -11.9 10.6
04:10 1024 30.24 853 25.19 -6.6 20.1 66 -11.9 10.5
04:15 1023 30.21 853 25.19 -6.1 21 63 -12.1 10.2
04:20 1023 30.21 853 25.19 -5.2 22.6 59 -12 10.4
04:25 1023 30.21 853 25.19 -5.1 22.8 59 -11.9 10.6
04:30 1023 30.21 853 25.19 -5.3 22.4 61 -11.7 10.9
04:35 1023 30.21 853 25.19 -5.6 21.9 62 -11.7 10.9
04:40 1023 30.21 853 25.19 -6 21.2 64 -11.7 10.9
04:45 1023 30.21 853 25.19 -6.3 20.7 65 -11.9 10.6
04:50 1023 30.21 853 25.19 -6.1 21.1 63 -12.1 10.3
04:55 1023 30.21 853 25.19 -5.8 21.6 61 -12.1 10.3
05:00 1023 30.21 853 25.19 -5.8 21.6 62 -11.9 10.5
05:05 1023 30.21 853 25.19 -5.9 21.4 63 -11.9 10.6
05:10 1023 30.21 852 25.16 -6.1 21.1 64 -11.8 10.8
05:15 1023 30.21 852 25.16 -6.6 20.2 67 -11.7 10.9
05:20 1023 30.21 852 25.16 -7 19.4 68 -11.9 10.6
05:25 1023 30.21 852 25.16 -6.8 19.7 67 -11.9 10.5
05:30 1023 30.21 852 25.16 -6.5 20.2 66 -12 10.5
05:35 1023 30.21 852 25.16 -6.2 20.8 63 -12.1 10.2
05:40 1023 30.21 852 25.16 -6.1 21.1 64 -11.9 10.6
05:45 1023 30.21 852 25.16 -6.1 21 63 -12 10.4
05:50 1023 30.21 852 25.16 -6.1 21 64 -11.9 10.6
05:55 1023 30.21 852 25.16 -6.2 20.8 65 -11.9 10.7
06:00 1023 30.21 852 25.16 -6.2 20.9 63 -12.1 10.2
06:05 1023 30.21 852 25.16 -5.9 21.4 62 -12.1 10.3
06:10 1023 30.21 852 25.16 -5.8 21.5 61 -12.1 10.1
06:15 1023 30.21 852 25.16 -5.8 21.6 61 -12.2 10
06:20 1023 30.21 852 25.16 -5.8 21.6 61 -12.1 10.2
06:25 1023 30.21 852 25.16 -5.9 21.3 63 -12 10.5
06:30 1023 30.21 852 25.16 -6.1 21 63 -12 10.3
06:35 1023 30.21 852 25.16 -6.1 21 62 -12.2 10
06:40 1023 30.21 852 25.16 -5.9 21.3 63 -12 10.4
06:45 1023 30.21 852 25.16 -6.1 21 61 -12.4 9.7
06:50 1023 30.21 852 25.16 -6 21.2 62 -12.2 10.1
06:55 1023 30.21 852 25.16 -6 21.1 61 -12.3 9.8
07:00 1023 30.21 852 25.16 -5.9 21.3 61 -12.3 9.8
07:05 1023 30.21 852 25.16 -5.8 21.5 60 -12.3 9.8
07:10 1023 30.21 852 25.16 -5.5 22.1 58 -12.5 9.5
07:15 1023 30.21 852 25.16 -5.5 22.2 59 -12.2 10
07:20 1022 30.18 852 25.16 -5.7 21.8 60 -12.2 10
07:25 1023 30.21 852 25.16 -5.9 21.4 61 -12.2 10.1
07:30 1023 30.21 852 25.16 -5.9 21.4 61 -12.3 9.9
07:35 1023 30.21 852 25.16 -5.9 21.5 60 -12.5 9.5
07:40 1023 30.21 852 25.16 -5.5 22.1 58 -12.5 9.6
07:45 1023 30.21 852 25.16 -5.3 22.4 58 -12.5 9.6
07:50 1023 30.21 852 25.16 -5 22.9 58 -12.1 10.3
07:55 1023 30.21 852 25.16 -4.9 23.2 56 -12.3 9.9
08:00 1023 30.21 852 25.16 -4.8 23.3 55 -12.5 9.4
08:05 1023 30.21 852 25.16 -4.6 23.7 55 -12.5 9.6
08:10 1023 30.21 852 25.16 -4.5 23.9 54 -12.5 9.6
08:15 1023 30.21 852 25.16 -4.3 24.2 53 -12.5 9.5
08:20 1023 30.21 852 25.16 -4.2 24.5 53 -12.5 9.6
08:25 1022 30.18 852 25.16 -4.1 24.6 52 -12.5 9.5
08:30 1022 30.18 852 25.16 -4.1 24.6 53 -12.4 9.7
08:35 1022 30.18 852 25.16 -3.9 25 52 -12.3 9.8
08:40 1022 30.18 852 25.16 -3.7 25.3 53 -12.1 10.3
08:45 1022 30.18 852 25.16 -3.7 25.3 53 -12 10.4
08:50 1022 30.18 852 25.16 -3.4 25.9 50 -12.3 9.8
08:55 1022 30.18 852 25.16 -3.3 26.1 54 -11.4 11.5
09:00 1022 30.18 851 25.13 -3.3 26 54 -11.3 11.6
09:05 1022 30.18 851 25.13 -3.5 25.7 53 -11.8 10.8
09:10 1022 30.18 851 25.13 -3.2 26.2 53 -11.6 11.1
09:15 1022 30.18 852 25.16 -3 26.7 53 -11.2 11.8
09:20 1022 30.18 851 25.13 -2.9 26.7 53 -11.2 11.9
09:25 1022 30.18 851 25.13 -2.8 27 52 -11.3 11.7
09:30 1022 30.18 851 25.13 -2.7 27.1 51 -11.6 11.2
09:35 1022 30.18 851 25.13 -2.5 27.5 50 -11.6 11.1
09:40 1022 30.18 851 25.13 -2 28.4 47 -11.8 10.8
09:45 1022 30.18 851 25.13 -1.6 29.1 46 -11.7 10.9
09:50 1022 30.18 851 25.13 -1.4 29.5 46 -11.6 11.1
09:55 1022 30.18 851 25.13 -1.2 29.9 44 -11.9 10.6
10:00 1022 30.18 851 25.13 -1 30.3 43 -12.2 10.1
10:05 1022 30.18 851 25.13 -0.6 30.8 43 -11.9 10.6
10:10 1022 30.18 851 25.13 -0.6 30.9 42 -11.9 10.5
10:15 1022 30.18 851 25.13 -0.1 31.8 41 -12 10.5
10:20 1021 30.15 851 25.13 0.1 32.2 39 -12.1 10.2
10:25 1021 30.15 851 25.13 0.4 32.7 37 -12.7 9.1
10:30 1021 30.15 851 25.13 0.4 32.8 40 -11.7 11
10:35 1021 30.15 851 25.13 0.3 32.5 36 -13.2 8.3
10:40 1021 30.15 850 25.1 0.2 32.3 37 -12.8 9
10:45 1021 30.15 850 25.1 0.9 33.7 35 -12.8 8.9
10:50 1021 30.15 850 25.1 1.8 35.2 34 -12.4 9.7
10:55 1021 30.15 850 25.1 1.6 34.8 37 -11.8 10.8
11:00 1021 30.15 850 25.1 0.7 33.2 38 -12.1 10.2
11:05 1021 30.15 850 25.1 1.4 34.6 37 -11.7 10.9
11:10 1021 30.15 850 25.1 2.4 36.4 34 -12 10.3
11:15 1021 30.15 850 25.1 3.1 37.5 33 -11.9 10.7
11:20 1021 30.15 850 25.1 3.1 37.6 33 -11.7 10.9
11:25 1021 30.15 850 25.1 2.5 36.5 37 -10.8 12.6
11:30 1020 30.12 850 25.1 1.8 35.3 40 -10.5 13
11:35 1020 30.12 850 25.1 2 35.7 38 -10.9 12.3
11:40 1020 30.12 850 25.1 1.9 35.5 39 -10.5 13.2
11:45 1020 30.12 849 25.07 2 35.5 38 -10.8 12.6
11:50 1020 30.12 849 25.07 2.2 36 36 -11.3 11.6
11:55 1020 30.12 849 25.07 3.1 37.6 34 -11.3 11.7
12:00 1020 30.12 849 25.07 3 37.4 34 -11.3 11.6
12:05 1020 30.12 849 25.07 2.9 37.3 36 -10.6 12.9
12:10 1020 30.12 849 25.07 2.4 36.3 37 -10.9 12.4
12:15 1020 30.12 849 25.07 2.7 36.9 35 -11.2 11.9
12:20 1020 30.12 849 25.07 3 37.5 37 -10.4 13.3
12:25 1020 30.12 849 25.07 2.5 36.5 35 -11.3 11.6
12:30 1020 30.12 849 25.07 2.9 37.2 35 -11.2 11.9
12:35 1020 30.12 849 25.07 2.9 37.3 34 -11.6 11
12:40 1020 30.12 849 25.07 2.6 36.7 34 -11.8 10.8
12:45 1020 30.12 849 25.07 2.9 37.3 34 -11.6 11.2
12:50 1019 30.09 849 25.07 3 37.4 34 -11.3 11.7
12:55 1019 30.09 848 25.04 3 37.4 33 -11.7 11
13:00 1019 30.09 848 25.04 3.2 37.8 34 -11.3 11.6
13:05 1019 30.09 848 25.04 3.1 37.6 34 -11.3 11.6
13:10 1019 30.09 848 25.04 2.6 36.7 34 -11.7 10.9
13:15 1019 30.09 848 25.04 2.2 35.9 36 -11.3 11.7
13:20 1019 30.09 848 25.04 1.7 35.1 38 -11.2 11.9
13:25 1019 30.09 848 25.04 1.4 34.5 38 -11.3 11.7
13:30 1019 30.09 848 25.04 1.2 34.2 37 -12 10.4
13:35 1019 30.09 848 25.04 0.8 33.4 37 -12.2 10
13:40 1019 30.09 848 25.04 0.7 33.2 37 -12.4 9.7
13:45 1019 30.09 848 25.04 1.1 34.1 35 -12.7 9.1
13:50 1019 30.09 848 25.04 1.3 34.3 35 -12.6 9.3
13:55 1019 30.09 848 25.04 0.9 33.6 35 -13 8.5
14:00 1019 30.09 848 25.04 0.5 32.8 38 -12.3 9.8
14:05 1019 30.09 848 25.04 0.5 33 37 -12.5 9.5
14:10 1019 30.09 848 25.04 0.6 33.1 37 -12.3 9.8
14:15 1019 30.09 848 25.04 0.7 33.3 38 -12.1 10.3
14:20 1019 30.09 848 25.04 0.9 33.6 37 -12.1 10.2
14:25 1019 30.09 848 25.04 1 33.8 38 -12 10.5
14:30 1019 30.09 848 25.04 1.2 34.1 37 -12.2 10.1
14:35 1019 30.09 848 25.04 1.2 34.1 38 -11.6 11.1
14:40 1019 30.09 848 25.04 1.3 34.3 38 -11.4 11.4
14:45 1019 30.09 848 25.04 1.4 34.4 38 -11.6 11.1
14:50 1019 30.09 848 25.04 1.4 34.4 40 -10.8 12.5
14:55 1019 30.09 848 25.04 1.2 34.2 40 -10.9 12.3
15:00 1019 30.09 848 25.04 1.1 34 42 -10.3 13.5
15:05 1019 30.09 848 25.04 1 33.8 43 -10.2 13.6
15:10 1019 30.09 848 25.04 0.9 33.7 44 -10.1 13.8
15:15 1019 30.09 848 25.04 0.8 33.5 44 -10 14
15:20 1019 30.09 848 25.04 0.6 33.2 44 -10.2 13.7
15:25 1019 30.09 848 25.04 0.3 32.6 46 -10.1 13.9
15:30 1019 30.09 848 25.04 0 32 47 -10.1 13.8
15:35 1019 30.09 848 25.04 -0.3 31.5 48 -10.1 13.9
15:40 1019 30.09 848 25.04 -0.4 31.2 48 -10.2 13.7
15:45 1019 30.09 848 25.04 -0.4 31.3 49 -10 14.1
15:50 1019 30.09 848 25.04 -0.4 31.4 49 -9.8 14.4
15:55 1019 30.09 848 25.04 -0.5 31.2 50 -9.6 14.7
16:00 1019 30.09 848 25.04 -0.6 31 50 -9.8 14.4
16:05 1019 30.09 848 25.04 -0.6 30.9 51 -9.5 14.9
16:10 1019 30.09 848 25.04 -0.7 30.8 52 -9.3 15.3
16:15 1019 30.09 848 25.04 -0.7 30.8 53 -9.2 15.4
16:20 1019 30.09 848 25.04 -0.7 30.7 51 -9.6 14.7
16:25 1019 30.09 848 25.04 -0.7 30.7 52 -9.3 15.3
16:30 1019 30.09 848 25.04 -0.6 30.9 51 -9.7 14.6
16:35 1019 30.09 848 25.04 -0.5 31.1 50 -9.7 14.5
16:40 1019 30.09 848 25.04 -0.5 31 51 -9.6 14.8
16:45 1019 30.09 848 25.04 -0.5 31.1 50 -9.7 14.5
16:50 1019 30.09 848 25.04 -0.5 31.1 51 -9.5 15
16:55 1019 30.09 848 25.04 -0.5 31 50 -9.7 14.5
17:00 1019 30.09 848 25.04 -0.6 31 52 -9.4 15.1
17:05 1018 30.06 848 25.04 -0.6 30.9 51 -9.4 15
17:10 1018 30.06 848 25.04 -0.7 30.8 53 -9.2 15.5
17:15 1018 30.06 848 25.04 -0.7 30.7 54 -8.9 16
17:20 1018 30.06 847 25.01 -0.9 30.4 54 -9 15.8
17:25 1018 30.06 847 25.01 -0.9 30.4 55 -8.8 16.2
17:30 1018 30.06 848 25.04 -0.8 30.5 55 -8.9 16
17:35 1018 30.06 848 25.04 -0.8 30.5 54 -9 15.8
17:40 1018 30.06 848 25.04 -0.8 30.6 54 -9 15.8
17:45 1018 30.06 848 25.04 -0.8 30.6 53 -9.3 15.3
17:50 1018 30.06 848 25.04 -0.7 30.7 52 -9.3 15.2
17:55 1018 30.06 848 25.04 -0.6 30.9 52 -9.3 15.3
18:00 1018 30.06 848 25.04 -0.7 30.8 52 -9.3 15.3
18:05 1018 30.06 848 25.04 -0.6 30.9 53 -9.1 15.6
18:10 1018 30.06 848 25.04 -0.5 31.1 51 -9.4 15
18:15 1018 30.06 848 25.04 -0.4 31.3 52 -9 15.7
18:20 1018 30.06 848 25.04 -0.2 31.7 51 -9.1 15.5
18:25 1018 30.06 847 25.01 -0.3 31.5 53 -8.7 16.4
18:30 1018 30.06 847 25.01 -0.2 31.6 52 -8.9 15.9
18:35 1018 30.06 847 25.01 -0.2 31.7 53 -8.7 16.3
18:40 1018 30.06 847 25.01 -0.4 31.3 56 -8.2 17.3
18:45 1018 30.06 847 25.01 -0.9 30.5 55 -8.7 16.3
18:50 1018 30.06 847 25.01 -0.7 30.7 55 -8.7 16.3
18:55 1018 30.06 847 25.01 -0.6 30.9 54 -8.7 16.3
19:00 1018 30.06 847 25.01 -0.7 30.8 53 -9 15.7
19:05 1018 30.06 847 25.01 -0.7 30.7 54 -9 15.9
19:10 1018 30.06 847 25.01 -0.5 31.1 52 -9.3 15.3
19:15 1018 30.06 847 25.01 -0.3 31.5 52 -9.1 15.7
19:20 1018 30.06 847 25.01 -0.4 31.3 55 -8.3 17
19:25 1018 30.06 847 25.01 -0.4 31.2 56 -8.2 17.2
19:30 1018 30.06 847 25.01 -0.4 31.4 54 -8.5 16.6
19:35 1018 30.06 847 25.01 -0.2 31.7 50 -9.4 15.1
19:40 1018 30.06 847 25.01 -0 32 55 -7.9 17.8
19:45 1018 30.06 847 25.01 -0.2 31.6 45 -10.9 12.4
19:50 1018 30.06 847 25.01 0.1 32.1 54 -8.1 17.4
19:55 1018 30.06 847 25.01 -0.5 31.1 56 -8.1 17.3
20:00 1018 30.06 847 25.01 -0.9 30.3 54 -9 15.8
20:05 1018 30.06 847 25.01 -1.1 30.1 56 -8.8 16.2
20:10 1018 30.06 847 25.01 -1.1 30 50 -10.3 13.4
20:15 1018 30.06 847 25.01 -0.6 30.9 51 -9.7 14.6
20:20 1018 30.06 847 25.01 -0.5 31.2 41 -12.1 10.3
20:25 1018 30.06 847 25.01 0.2 32.3 43 -10.9 12.4
20:30 1018 30.06 847 25.01 -0 32 39 -12.4 9.8
20:35 1018 30.06 847 25.01 0.3 32.6 39 -12.1 10.2
20:40 1018 30.06 847 25.01 0.3 32.5 40 -11.8 10.8
20:45 1018 30.06 847 25.01 0.2 32.4 36 -13 8.6
20:50 1018 30.06 847 25.01 0.3 32.5 36 -13.1 8.4
20:55 1018 30.06 847 25.01 0.6 33.1 41 -11.3 11.7
21:00 1018 30.06 847 25.01 0.4 32.7 39 -12.1 10.2
21:05 1018 30.06 847 25.01 -0.3 31.4 46 -10.6 12.9
21:10 1018 30.06 847 25.01 -0.9 30.4 46 -11 12.2
21:15 1018 30.06 847 25.01 -0.9 30.3 47 -10.9 12.4
21:20 1018 30.06 847 25.01 -1 30.1 52 -9.7 14.6
21:25 1018 30.06 847 25.01 -1.2 29.8 49 -10.7 12.7
21:30 1018 30.06 847 25.01 -1.1 30.1 51 -10 14
21:35 1018 30.06 847 25.01 -0.9 30.4 51 -9.8 14.4
21:40 1018 30.06 847 25.01 -0.8 30.5 47 -10.7 12.7
21:45 1018 30.06 847 25.01 -0.5 31 45 -11.2 11.9
21:50 1018 30.06 847 25.01 -0.3 31.5 45 -10.9 12.3
21:55 1018 30.06 847 25.01 -0.2 31.6 43 -11.2 11.8
22:00 1018 30.06 847 25.01 0.1 32.2 43 -11 12.2
22:05 1018 30.06 847 25.01 0.5 32.8 44 -10.4 13.4
22:10 1018 30.06 847 25.01 0.4 32.7 47 -9.8 14.4
22:15 1018 30.06 847 25.01 0.2 32.4 46 -10.1 13.7
22:20 1018 30.06 847 25.01 0.3 32.5 46 -10.2 13.7
22:25 1018 30.06 847 25.01 0.3 32.5 47 -9.8 14.3
22:30 1018 30.06 847 25.01 0.3 32.5 47 -9.7 14.5
22:35 1018 30.06 847 25.01 0.1 32.2 47 -9.9 14.2
22:40 1018 30.06 847 25.01 0 32.1 48 -9.8 14.4
22:45 1018 30.06 847 25.01 0.1 32.1 48 -9.6 14.7
22:50 1018 30.06 847 25.01 -0.1 31.9 49 -9.5 15
22:55 1018 30.06 847 25.01 -0.3 31.5 50 -9.4 15
23:00 1018 30.06 847 25.01 -0.4 31.4 51 -9.3 15.2
23:05 1018 30.06 847 25.01 -0.3 31.4 51 -9.3 15.3
23:10 1018 30.06 847 25.01 -0.3 31.4 51 -9.2 15.4
23:15 1018 30.06 847 25.01 -0.3 31.4 52 -9.1 15.6
23:20 1018 30.06 847 25.01 -0.4 31.3 52 -9 15.8
23:25 1018 30.06 847 25.01 -0.3 31.4 53 -8.8 16.2
23:30 1018 30.06 847 25.01 -0.3 31.4 53 -8.8 16.2
23:35 1018 30.06 847 25.01 -0.4 31.3 54 -8.6 16.5
23:40 1018 30.06 847 25.01 -0.5 31 55 -8.6 16.5
23:45 1018 30.06 847 25.01 -0.5 31.1 54 -8.7 16.4
23:50 1018 30.06 847 25.01 -0.4 31.3 54 -8.6 16.5
23:55 1018 30.06 847 25.01 -0.3 31.5 54 -8.5 16.6
24:00 1018 30.06 847 25.01 -0.2 31.6 54 -8.3 17